Umea, Sweden

3:01 PM CEST on August 21, 2014 (GMT +0200)
Umea | Change Station
CLOSE
Current Station
Airport
Location: Umea,
Elevation: 23 ft
Nearby Weather Stations

Elev 23 ft 63.79 °N, 20.28 °E | Updated 11 minutes ago

Mostly Cloudy
Mostly Cloudy
61 °F
Feels Like 61 °F
N
4
Wind Variable Wind from SE

Today
High -- | Low -- °F
--% Chance of Precip.
Yesterday
High -- | Low -- °F
Precip. -- in
4:49 AM 8:32 PM
Waning Crescent, 14% visible
Pressure 29.53 in
Visibility 6.2 miles
Clouds Mostly Cloudy 1900 ft
Mostly Cloudy 5900 ft
Dew Point 52 °F
Humidity 72%
Rainfall 0.00 in
Snow Depth Not available.
UV 2 out of 12
Pollen Not available.
Air Quality Not available.
Flu Activity Not available.
METAR ESNU 211250Z 14003KT 060V170 9999 BKN019CB BKN059 16/11 Q1000 RERA

More Conditions Fewer Conditions

Pressure 29.53 in
Visibility 6.2 miles
Clouds Mostly Cloudy 1900 ft
Mostly Cloudy 5900 ft
Dew Point 52 °F
Humidity 72%
Rainfall 0.00 in
Snow Depth Not available.
UV 2 out of 12
Pollen Not available.
Air Quality Not available.
Flu Activity Not available.
METAR ESNU 211250Z 14003KT 060V170 9999 BKN019CB BKN059 16/11 Q1000 RERA

More Conditions Fewer Conditions

10-Day Weather Forecast

Almanac

Astronomy

Aug. 21, 2014 Rise Set
Actual Time 4:49 AM CEST 8:32 PM CEST
Civil Twilight 3:50 AM CEST 9:30 PM CEST
Nautical Twilight 2:13 AM CEST 11:04 PM CEST
Astronomical Twilight Sun does not rise Sun does not rise
Moon 12:22 AM CEST 6:23 PM CEST
Length of Visible Light 17h 40m
Length of Day
15h 42m
Tomorrow will be 6m 25s shorter.
Waning Crescent, 14% of the Moon is Illuminated
Today
Waning Crescent
Aug 25
New
Sep 2
First Quarter
Sep 8
Full
Sep 15
Last Quarter

Yesterday's Extremes

Country Highs Country Lows

Community

WunderPhotos

Upload Photos

1,745,905 photos uploaded!

WunderBlogs® & News

By Dr. Jeff Masters
Director of Meteorology, Weather Underground
By Kari Strenfel
Meteorologist, Weather Underground
By Christopher C. Burt
Weather Historian, Weather Underground
August 21, 2014
August 21, 2014
August 21, 2014

Nearby

Snow Depth

Not available.

Earthquake Activity

City Distance Mag. Time & Date
No recent earthquake activity has been reported nearby.
Minimum magnitude displayed is 2.5.

Coastal Water Temperatures

Place Temperature
No Stations Reporting

Nearby Weather Stations